sensor_id;sensor_type;location;lat;lon;timestamp;pressure;altitude;pressure_sealevel;temperature;humidity
37486;BME280;23341;50.296;18.960;2023-07-30T00:03:33;52553.72;;;-144.43;100.00
37486;BME280;23341;50.296;18.960;2023-07-30T00:08:37;52537.72;;;-144.43;100.00
37486;BME280;23341;50.296;18.960;2023-07-30T00:13:41;52617.75;;;-144.43;100.00
37486;BME280;23341;50.296;18.960;2023-07-30T00:18:46;52541.72;;;-144.43;100.00
37486;BME280;23341;50.296;18.960;2023-07-30T00:23:50;52577.75;;;-144.43;100.00
37486;BME280;23341;50.296;18.960;2023-07-30T00:28:54;52697.75;;;-144.43;100.00
37486;BME280;23341;50.296;18.960;2023-07-30T00:33:59;52693.75;;;-144.43;100.00
37486;BME280;23341;50.296;18.960;2023-07-30T00:39:03;52683.75;;;-144.43;100.00
37486;BME280;23341;50.296;18.960;2023-07-30T00:44:07;52605.75;;;-144.43;100.00
37486;BME280;23341;50.296;18.960;2023-07-30T00:49:12;52613.75;;;-144.43;100.00
37486;BME280;23341;50.296;18.960;2023-07-30T00:54:16;52593.75;;;-144.43;100.00
37486;BME280;23341;50.296;18.960;2023-07-30T00:59:20;52607.75;;;-144.43;100.00
37486;BME280;23341;50.296;18.960;2023-07-30T01:04:26;52559.72;;;-144.43;100.00
37486;BME280;23341;50.296;18.960;2023-07-30T01:09:31;52501.72;;;-144.43;100.00
37486;BME280;23341;50.296;18.960;2023-07-30T01:14:35;52485.72;;;-144.43;100.00
37486;BME280;23341;50.296;18.960;2023-07-30T01:19:42;52461.72;;;-144.43;100.00
37486;BME280;23341;50.296;18.960;2023-07-30T01:24:48;52417.72;;;-144.43;100.00
37486;BME280;23341;50.296;18.960;2023-07-30T01:29:53;52383.72;;;-144.43;100.00
37486;BME280;23341;50.296;18.960;2023-07-30T01:35:00;52385.72;;;-144.43;100.00
37486;BME280;23341;50.296;18.960;2023-07-30T01:40:07;52351.72;;;-144.43;100.00
37486;BME280;23341;50.296;18.960;2023-07-30T01:45:12;52325.72;;;-144.43;100.00
37486;BME280;23341;50.296;18.960;2023-07-30T01:50:17;52289.72;;;-144.43;100.00
37486;BME280;23341;50.296;18.960;2023-07-30T01:55:22;52283.72;;;-144.43;100.00
37486;BME280;23341;50.296;18.960;2023-07-30T02:00:26;52199.72;;;-144.43;100.00
37486;BME280;23341;50.296;18.960;2023-07-30T02:05:38;52187.72;;;-144.43;100.00
37486;BME280;23341;50.296;18.960;2023-07-30T02:10:43;52169.72;;;-144.43;100.00
37486;BME280;23341;50.296;18.960;2023-07-30T02:15:47;52201.69;;;-144.43;100.00
37486;BME280;23341;50.296;18.960;2023-07-30T02:20:51;52213.72;;;-144.43;100.00
37486;BME280;23341;50.296;18.960;2023-07-30T02:25:56;52199.72;;;-144.43;100.00
37486;BME280;23341;50.296;18.960;2023-07-30T02:31:00;52161.69;;;-144.43;100.00
37486;BME280;23341;50.296;18.960;2023-07-30T02:36:04;52201.69;;;-144.43;100.00
37486;BME280;23341;50.296;18.960;2023-07-30T02:41:09;52181.69;;;-144.43;100.00
37486;BME280;23341;50.296;18.960;2023-07-30T02:46:13;52169.72;;;-144.43;100.00
37486;BME280;23341;50.296;18.960;2023-07-30T02:51:17;52189.72;;;-144.43;100.00
37486;BME280;23341;50.296;18.960;2023-07-30T02:56:22;52115.69;;;-144.43;100.00
37486;BME280;23341;50.296;18.960;2023-07-30T03:11:05;52133.69;;;-144.43;100.00
37486;BME280;23341;50.296;18.960;2023-07-30T03:16:09;52153.69;;;-144.43;100.00
37486;BME280;23341;50.296;18.960;2023-07-30T03:21:12;52153.69;;;-144.43;100.00
37486;BME280;23341;50.296;18.960;2023-07-30T03:26:17;52147.69;;;-144.43;100.00
37486;BME280;23341;50.296;18.960;2023-07-30T03:31:21;52129.69;;;-144.43;100.00
37486;BME280;23341;50.296;18.960;2023-07-30T03:36:25;52145.69;;;-144.43;100.00
37486;BME280;23341;50.296;18.960;2023-07-30T03:41:30;52189.72;;;-144.43;100.00
37486;BME280;23341;50.296;18.960;2023-07-30T03:46:34;52145.69;;;-144.43;100.00
37486;BME280;23341;50.296;18.960;2023-07-30T03:51:38;52161.69;;;-144.43;100.00
37486;BME280;23341;50.296;18.960;2023-07-30T03:56:43;52207.72;;;-144.43;100.00
37486;BME280;23341;50.296;18.960;2023-07-30T04:01:47;52179.69;;;-144.43;100.00
37486;BME280;23341;50.296;18.960;2023-07-30T04:06:51;52157.69;;;-144.43;100.00
37486;BME280;23341;50.296;18.960;2023-07-30T04:11:56;52201.69;;;-144.43;100.00
37486;BME280;23341;50.296;18.960;2023-07-30T04:17:00;52201.69;;;-144.43;100.00
37486;BME280;23341;50.296;18.960;2023-07-30T04:22:03;52205.69;;;-144.43;100.00
37486;BME280;23341;50.296;18.960;2023-07-30T04:27:09;52263.72;;;-144.43;100.00
37486;BME280;23341;50.296;18.960;2023-07-30T04:32:13;52227.72;;;-144.43;100.00
37486;BME280;23341;50.296;18.960;2023-07-30T04:37:17;52243.72;;;-144.43;100.00
37486;BME280;23341;50.296;18.960;2023-07-30T04:42:22;52243.72;;;-144.43;100.00
37486;BME280;23341;50.296;18.960;2023-07-30T04:47:27;52247.72;;;-144.43;100.00
37486;BME280;23341;50.296;18.960;2023-07-30T04:52:31;52261.72;;;-144.43;100.00
37486;BME280;23341;50.296;18.960;2023-07-30T04:57:36;52347.72;;;-144.43;100.00
37486;BME280;23341;50.296;18.960;2023-07-30T05:02:40;52363.72;;;-144.43;100.00
37486;BME280;23341;50.296;18.960;2023-07-30T05:07:44;52419.72;;;-144.43;100.00
37486;BME280;23341;50.296;18.960;2023-07-30T05:12:49;52483.72;;;-144.43;100.00
37486;BME280;23341;50.296;18.960;2023-07-30T05:17:52;52457.72;;;-144.43;100.00
37486;BME280;23341;50.296;18.960;2023-07-30T05:22:56;52451.72;;;-144.43;100.00
37486;BME280;23341;50.296;18.960;2023-07-30T05:28:01;52329.72;;;-144.43;100.00
37486;BME280;23341;50.296;18.960;2023-07-30T05:33:05;52385.72;;;-144.43;100.00
37486;BME280;23341;50.296;18.960;2023-07-30T05:38:09;52517.72;;;-144.43;100.00
37486;BME280;23341;50.296;18.960;2023-07-30T05:43:14;52449.72;;;-144.43;100.00
37486;BME280;23341;50.296;18.960;2023-07-30T05:48:18;52507.72;;;-144.43;100.00
37486;BME280;23341;50.296;18.960;2023-07-30T05:53:21;52717.75;;;-144.43;98.79
37486;BME280;23341;50.296;18.960;2023-07-30T05:58:26;52889.78;;;-144.43;96.60
37486;BME280;23341;50.296;18.960;2023-07-30T06:03:30;52897.78;;;-144.43;96.77
37486;BME280;23341;50.296;18.960;2023-07-30T06:08:34;52913.78;;;-144.43;97.74
37486;BME280;23341;50.296;18.960;2023-07-30T06:13:39;53209.88;;;-144.43;91.74
37486;BME280;23341;50.296;18.960;2023-07-30T06:18:43;53499.97;;;-144.43;86.41
37486;BME280;23341;50.296;18.960;2023-07-30T06:23:47;54062.22;;;-144.43;71.52
37486;BME280;23341;50.296;18.960;2023-07-30T06:28:52;54566.50;;;-144.43;65.10
37486;BME280;23341;50.296;18.960;2023-07-30T06:33:56;54936.75;;;-144.43;60.35
37486;BME280;23341;50.296;18.960;2023-07-30T06:39:00;56017.69;;;-144.43;54.62
37486;BME280;23341;50.296;18.960;2023-07-30T06:44:05;56079.75;;;-144.43;54.44
37486;BME280;23341;50.296;18.960;2023-07-30T06:49:09;55735.41;;;-144.43;61.26
37486;BME280;23341;50.296;18.960;2023-07-30T06:54:13;55629.31;;;-144.43;67.69
37486;BME280;23341;50.296;18.960;2023-07-30T06:59:18;56608.31;;;-144.43;66.66
37486;BME280;23341;50.296;18.960;2023-07-30T07:04:22;55317.03;;;-144.43;76.50
37486;BME280;23341;50.296;18.960;2023-07-30T07:09:26;53978.16;;;-144.43;87.11
37486;BME280;23341;50.296;18.960;2023-07-30T07:14:32;54790.66;;;-144.43;80.75
37486;BME280;23341;50.296;18.960;2023-07-30T07:19:36;53994.16;;;-144.43;87.51
37486;BME280;23341;50.296;18.960;2023-07-30T07:24:40;55391.09;;;-144.43;78.10
37486;BME280;23341;50.296;18.960;2023-07-30T07:29:46;57028.81;;;-144.43;71.24
37486;BME280;23341;50.296;18.960;2023-07-30T07:34:50;57377.25;;;-144.43;71.16
37486;BME280;23341;50.296;18.960;2023-07-30T07:39:54;57567.53;;;-144.43;71.47
37486;BME280;23341;50.296;18.960;2023-07-30T07:44:59;57385.28;;;-144.43;71.18
37486;BME280;23341;50.296;18.960;2023-07-30T07:50:03;56908.66;;;-144.43;74.02
37486;BME280;23341;50.296;18.960;2023-07-30T07:55:07;55721.41;;;-144.43;78.25
37486;BME280;23341;50.296;18.960;2023-07-30T08:00:26;54262.31;;;-144.43;85.31
37486;BME280;23341;50.296;18.960;2023-07-30T08:05:30;54706.59;;;-144.43;84.26
37486;BME280;23341;50.296;18.960;2023-07-30T08:10:38;55285.00;;;-144.43;81.87
37486;BME280;23341;50.296;18.960;2023-07-30T08:15:44;56149.81;;;-144.43;77.26
37486;BME280;23341;50.296;18.960;2023-07-30T08:20:52;56564.25;;;-144.43;76.76
37486;BME280;23341;50.296;18.960;2023-07-30T08:25:56;55955.63;;;-144.43;76.69
37486;BME280;23341;50.296;18.960;2023-07-30T08:31:01;56640.34;;;-144.43;75.08
37486;BME280;23341;50.296;18.960;2023-07-30T08:36:05;57287.16;;;-144.43;73.80
37486;BME280;23341;50.296;18.960;2023-07-30T08:41:09;56784.50;;;-144.43;74.57
37486;BME280;23341;50.296;18.960;2023-07-30T08:46:15;56586.28;;;-144.43;74.99
37486;BME280;23341;50.296;18.960;2023-07-30T08:51:19;56303.97;;;-144.43;75.91
37486;BME280;23341;50.296;18.960;2023-07-30T08:56:25;54914.72;;;-144.43;79.62
37486;BME280;23341;50.296;18.960;2023-07-30T09:01:34;54616.53;;;-144.43;82.51
37486;BME280;23341;50.296;18.960;2023-07-30T09:06:41;54354.38;;;-144.43;82.04
37486;BME280;23341;50.296;18.960;2023-07-30T09:11:54;53848.09;;;-144.43;85.27
37486;BME280;23341;50.296;18.960;2023-07-30T09:17:02;53850.09;;;-144.43;83.29
37486;BME280;23341;50.296;18.960;2023-07-30T09:22:06;53718.06;;;-144.43;84.16
37486;BME280;23341;50.296;18.960;2023-07-30T09:27:10;53764.06;;;-144.43;83.86
37486;BME280;23341;50.296;18.960;2023-07-30T09:32:16;53535.97;;;-144.43;84.11
37486;BME280;23341;50.296;18.960;2023-07-30T09:37:20;53551.97;;;-144.43;87.18
37486;BME280;23341;50.296;18.960;2023-07-30T09:42:26;53700.03;;;-144.43;87.34
37486;BME280;23341;50.296;18.960;2023-07-30T09:47:32;53998.19;;;-144.43;84.67
37486;BME280;23341;50.296;18.960;2023-07-30T09:52:38;54154.25;;;-144.43;84.73
37486;BME280;23341;50.296;18.960;2023-07-30T09:57:42;53884.13;;;-144.43;85.50
37486;BME280;23341;50.296;18.960;2023-07-30T10:02:49;53986.16;;;-144.43;84.17
37486;BME280;23341;50.296;18.960;2023-07-30T10:07:56;53644.03;;;-144.43;86.02
37486;BME280;23341;50.296;18.960;2023-07-30T10:13:05;53269.88;;;-144.43;89.66
37486;BME280;23341;50.296;18.960;2023-07-30T10:18:11;53517.97;;;-144.43;87.63
37486;BME280;23341;50.296;18.960;2023-07-30T10:23:15;53437.94;;;-144.43;87.81
37486;BME280;23341;50.296;18.960;2023-07-30T10:28:32;53738.06;;;-144.43;85.87
37486;BME280;23341;50.296;18.960;2023-07-30T10:33:50;53153.84;;;-144.43;88.11
37486;BME280;23341;50.296;18.960;2023-07-30T10:38:54;53427.94;;;-144.43;87.90
37486;BME280;23341;50.296;18.960;2023-07-30T10:43:59;53868.13;;;-144.43;84.28
37486;BME280;23341;50.296;18.960;2023-07-30T10:49:04;53756.06;;;-144.43;86.04
37486;BME280;23341;50.296;18.960;2023-07-30T10:54:09;53658.03;;;-144.43;84.38
37486;BME280;23341;50.296;18.960;2023-07-30T10:59:14;53618.00;;;-144.43;84.91
37486;BME280;23341;50.296;18.960;2023-07-30T11:04:20;53926.13;;;-144.43;81.56
37486;BME280;23341;50.296;18.960;2023-07-30T11:09:25;53574.00;;;-144.43;83.08
37486;BME280;23341;50.296;18.960;2023-07-30T11:14:29;53688.03;;;-144.43;83.20
37486;BME280;23341;50.296;18.960;2023-07-30T11:19:34;53890.13;;;-144.43;81.37
37486;BME280;23341;50.296;18.960;2023-07-30T11:24:38;53610.00;;;-144.43;83.42
37486;BME280;23341;50.296;18.960;2023-07-30T11:29:53;53505.97;;;-144.43;84.54
37486;BME280;23341;50.296;18.960;2023-07-30T11:34:59;53305.91;;;-144.43;87.13
37486;BME280;23341;50.296;18.960;2023-07-30T11:40:03;53493.97;;;-144.43;88.43
37486;BME280;23341;50.296;18.960;2023-07-30T11:45:17;53381.91;;;-144.43;87.57
37486;BME280;23341;50.296;18.960;2023-07-30T11:50:23;53205.88;;;-144.43;89.12
37486;BME280;23341;50.296;18.960;2023-07-30T11:55:36;53279.88;;;-144.43;89.60
37486;BME280;23341;50.296;18.960;2023-07-30T12:00:41;53283.88;;;-144.43;88.27
37486;BME280;23341;50.296;18.960;2023-07-30T12:05:49;53441.94;;;-144.43;88.35
37486;BME280;23341;50.296;18.960;2023-07-30T12:10:53;52981.81;;;-144.43;91.35
37486;BME280;23341;50.296;18.960;2023-07-30T12:15:58;53025.81;;;-144.43;90.98
37486;BME280;23341;50.296;18.960;2023-07-30T12:21:04;52885.78;;;-144.43;91.49
37486;BME280;23341;50.296;18.960;2023-07-30T12:26:09;52917.78;;;-144.43;91.52
37486;BME280;23341;50.296;18.960;2023-07-30T12:31:13;53065.84;;;-144.43;90.77
37486;BME280;23341;50.296;18.960;2023-07-30T12:36:18;53157.84;;;-144.43;88.18
37486;BME280;23341;50.296;18.960;2023-07-30T12:41:22;53081.84;;;-144.43;88.78
37486;BME280;23341;50.296;18.960;2023-07-30T12:46:28;53007.81;;;-144.43;89.78
37486;BME280;23341;50.296;18.960;2023-07-30T12:51:34;53021.81;;;-144.43;89.44
37486;BME280;23341;50.296;18.960;2023-07-30T12:56:39;53157.84;;;-144.43;88.49
37486;BME280;23341;50.296;18.960;2023-07-30T13:01:42;53247.88;;;-144.43;85.44
37486;BME280;23341;50.296;18.960;2023-07-30T13:06:54;53273.88;;;-144.43;85.52
37486;BME280;23341;50.296;18.960;2023-07-30T13:11:57;53073.84;;;-144.43;86.25
37486;BME280;23341;50.296;18.960;2023-07-30T13:17:01;53317.91;;;-144.43;85.09
37486;BME280;23341;50.296;18.960;2023-07-30T13:22:07;53978.16;;;-144.43;82.54
37486;BME280;23341;50.296;18.960;2023-07-30T13:27:11;54102.22;;;-144.43;81.70
37486;BME280;23341;50.296;18.960;2023-07-30T13:32:15;54646.53;;;-144.43;79.53
37486;BME280;23341;50.296;18.960;2023-07-30T13:37:20;54626.53;;;-144.43;78.58
37486;BME280;23341;50.296;18.960;2023-07-30T13:42:26;55487.19;;;-144.43;75.11
37486;BME280;23341;50.296;18.960;2023-07-30T13:47:30;56223.88;;;-144.43;72.70
37486;BME280;23341;50.296;18.960;2023-07-30T13:52:36;56670.38;;;-144.43;70.66
37486;BME280;23341;50.296;18.960;2023-07-30T13:57:40;55086.84;;;-144.43;74.30
37486;BME280;23341;50.296;18.960;2023-07-30T14:02:46;54382.38;;;-144.43;78.32
37486;BME280;23341;50.296;18.960;2023-07-30T14:07:52;54040.19;;;-144.43;79.77
37486;BME280;23341;50.296;18.960;2023-07-30T14:12:58;54268.31;;;-144.43;78.91
37486;BME280;23341;50.296;18.960;2023-07-30T14:18:02;54256.31;;;-144.43;79.08
37486;BME280;23341;50.296;18.960;2023-07-30T14:23:08;53950.16;;;-144.43;82.18
37486;BME280;23341;50.296;18.960;2023-07-30T14:28:12;53754.06;;;-144.43;82.66
37486;BME280;23341;50.296;18.960;2023-07-30T14:33:17;53986.16;;;-144.43;81.82
37486;BME280;23341;50.296;18.960;2023-07-30T14:38:58;54300.34;;;-144.43;81.53
37486;BME280;23341;50.296;18.960;2023-07-30T14:44:23;54306.34;;;-144.43;80.58
37486;BME280;23341;50.296;18.960;2023-07-30T14:49:29;54720.59;;;-144.43;79.28
37486;BME280;23341;50.296;18.960;2023-07-30T14:54:38;54186.28;;;-144.43;81.36
37486;BME280;23341;50.296;18.960;2023-07-30T14:59:43;54670.56;;;-144.43;79.42
37486;BME280;23341;50.296;18.960;2023-07-30T15:04:48;54648.53;;;-144.43;79.48
37486;BME280;23341;50.296;18.960;2023-07-30T15:09:53;55198.94;;;-144.43;77.82
37486;BME280;23341;50.296;18.960;2023-07-30T15:14:57;55068.84;;;-144.43;77.24
37486;BME280;23341;50.296;18.960;2023-07-30T15:20:02;53513.97;;;-144.43;85.95
37486;BME280;23341;50.296;18.960;2023-07-30T15:25:08;52937.81;;;-144.43;91.66
37486;BME280;23341;50.296;18.960;2023-07-30T15:30:12;52675.75;;;-144.43;95.02
37486;BME280;23341;50.296;18.960;2023-07-30T15:35:15;52505.72;;;-144.43;95.54
37486;BME280;23341;50.296;18.960;2023-07-30T15:40:21;52519.72;;;-144.43;96.14
37486;BME280;23341;50.296;18.960;2023-07-30T15:45:24;52501.72;;;-144.43;97.33
37486;BME280;23341;50.296;18.960;2023-07-30T15:50:28;52479.72;;;-144.43;98.98
37486;BME280;23341;50.296;18.960;2023-07-30T15:55:34;52415.72;;;-144.43;100.00
37486;BME280;23341;50.296;18.960;2023-07-30T16:00:37;52357.72;;;-144.43;100.00
37486;BME280;23341;50.296;18.960;2023-07-30T16:05:46;52279.72;;;-144.43;100.00
37486;BME280;23341;50.296;18.960;2023-07-30T16:11:00;52161.69;;;-144.43;93.36
37486;BME280;23341;50.296;18.960;2023-07-30T16:16:08;52079.69;;;-144.43;83.17
37486;BME280;23341;50.296;18.960;2023-07-30T16:21:12;51819.72;;;-144.43;88.67
37486;BME280;23341;50.296;18.960;2023-07-30T16:26:17;51887.72;;;-144.43;90.27
37486;BME280;23341;50.296;18.960;2023-07-30T16:31:21;51947.69;;;-144.43;89.79
37486;BME280;23341;50.296;18.960;2023-07-30T16:36:25;51933.69;;;-144.43;90.79
37486;BME280;23341;50.296;18.960;2023-07-30T16:41:30;52005.69;;;-144.43;86.75
37486;BME280;23341;50.296;18.960;2023-07-30T16:46:34;52009.69;;;-144.43;85.46
37486;BME280;23341;50.296;18.960;2023-07-30T16:51:38;51945.69;;;-144.43;84.80
37486;BME280;23341;50.296;18.960;2023-07-30T16:56:44;51983.69;;;-144.43;83.39
37486;BME280;23341;50.296;18.960;2023-07-30T17:01:48;51957.69;;;-144.43;84.67
37486;BME280;23341;50.296;18.960;2023-07-30T17:06:52;51973.69;;;-144.43;84.45
37486;BME280;23341;50.296;18.960;2023-07-30T17:11:57;52059.69;;;-144.43;84.09
37486;BME280;23341;50.296;18.960;2023-07-30T17:17:01;52055.69;;;-144.43;84.38
37486;BME280;23341;50.296;18.960;2023-07-30T17:22:06;52113.69;;;-144.43;83.28
37486;BME280;23341;50.296;18.960;2023-07-30T17:27:11;52265.72;;;-144.43;79.65
37486;BME280;23341;50.296;18.960;2023-07-30T17:32:17;52077.69;;;-144.43;80.01
37486;BME280;23341;50.296;18.960;2023-07-30T17:37:21;52137.69;;;-144.43;79.89
37486;BME280;23341;50.296;18.960;2023-07-30T17:48:34;52241.72;;;-144.43;76.97
37486;BME280;23341;50.296;18.960;2023-07-30T17:53:38;52213.72;;;-144.43;78.04
37486;BME280;23341;50.296;18.960;2023-07-30T17:58:43;52241.72;;;-144.43;77.33
37486;BME280;23341;50.296;18.960;2023-07-30T18:03:49;52227.72;;;-144.43;77.89
37486;BME280;23341;50.296;18.960;2023-07-30T18:08:56;52213.72;;;-144.43;77.71
37486;BME280;23341;50.296;18.960;2023-07-30T18:14:00;52161.69;;;-144.43;77.75
37486;BME280;23341;50.296;18.960;2023-07-30T18:19:09;52059.69;;;-144.43;78.50
37486;BME280;23341;50.296;18.960;2023-07-30T18:24:18;52111.69;;;-144.43;79.91
37486;BME280;23341;50.296;18.960;2023-07-30T18:29:22;52017.69;;;-144.43;80.38
37486;BME280;23341;50.296;18.960;2023-07-30T18:34:27;52029.69;;;-144.43;80.41
37486;BME280;23341;50.296;18.960;2023-07-30T18:39:31;51893.72;;;-144.43;83.62
37486;BME280;23341;50.296;18.960;2023-07-30T18:44:41;51807.72;;;-144.43;84.77
37486;BME280;23341;50.296;18.960;2023-07-30T18:49:50;51903.72;;;-144.43;86.51
37486;BME280;23341;50.296;18.960;2023-07-30T18:54:54;51889.72;;;-144.43;87.46
37486;BME280;23341;50.296;18.960;2023-07-30T18:59:57;51841.72;;;-144.43;89.77
37486;BME280;23341;50.296;18.960;2023-07-30T19:05:08;51845.72;;;-144.43;90.58
37486;BME280;23341;50.296;18.960;2023-07-30T19:10:30;51765.72;;;-144.43;91.47
37486;BME280;23341;50.296;18.960;2023-07-30T19:15:42;51757.72;;;-144.43;93.77
37486;BME280;23341;50.296;18.960;2023-07-30T19:20:50;51813.72;;;-144.43;96.97
37486;BME280;23341;50.296;18.960;2023-07-30T19:25:54;51825.72;;;-144.43;99.23
37486;BME280;23341;50.296;18.960;2023-07-30T19:30:58;51929.72;;;-144.43;100.00
37486;BME280;23341;50.296;18.960;2023-07-30T19:36:04;51917.72;;;-144.43;100.00
37486;BME280;23341;50.296;18.960;2023-07-30T19:41:10;51905.72;;;-144.43;100.00
37486;BME280;23341;50.296;18.960;2023-07-30T19:46:30;51937.69;;;-144.43;100.00
37486;BME280;23341;50.296;18.960;2023-07-30T19:51:36;51903.72;;;-144.43;100.00
37486;BME280;23341;50.296;18.960;2023-07-30T19:56:40;51941.72;;;-144.43;100.00
37486;BME280;23341;50.296;18.960;2023-07-30T20:01:50;51927.72;;;-144.43;100.00
37486;BME280;23341;50.296;18.960;2023-07-30T20:07:00;51933.69;;;-144.43;100.00
37486;BME280;23341;50.296;18.960;2023-07-30T20:12:04;51965.69;;;-144.43;100.00
37486;BME280;23341;50.296;18.960;2023-07-30T20:17:08;52041.69;;;-144.43;100.00
37486;BME280;23341;50.296;18.960;2023-07-30T20:22:13;52047.69;;;-144.43;100.00
37486;BME280;23341;50.296;18.960;2023-07-30T20:27:17;52033.69;;;-144.43;100.00
37486;BME280;23341;50.296;18.960;2023-07-30T20:32:23;51979.69;;;-144.43;100.00
37486;BME280;23341;50.296;18.960;2023-07-30T20:37:31;51971.69;;;-144.43;100.00
37486;BME280;23341;50.296;18.960;2023-07-30T20:42:35;52019.69;;;-144.43;100.00
37486;BME280;23341;50.296;18.960;2023-07-30T20:47:38;51961.69;;;-144.43;100.00
37486;BME280;23341;50.296;18.960;2023-07-30T20:52:47;51969.69;;;-144.43;100.00
37486;BME280;23341;50.296;18.960;2023-07-30T20:57:51;51951.69;;;-144.43;100.00
37486;BME280;23341;50.296;18.960;2023-07-30T21:03:04;51963.69;;;-144.43;100.00
37486;BME280;23341;50.296;18.960;2023-07-30T21:14:04;51919.69;;;-144.43;100.00
37486;BME280;23341;50.296;18.960;2023-07-30T21:19:08;51977.69;;;-144.43;100.00
37486;BME280;23341;50.296;18.960;2023-07-30T21:24:13;51937.69;;;-144.43;100.00
37486;BME280;23341;50.296;18.960;2023-07-30T21:29:19;51999.69;;;-144.43;100.00
37486;BME280;23341;50.296;18.960;2023-07-30T21:34:24;51971.69;;;-144.43;100.00
37486;BME280;23341;50.296;18.960;2023-07-30T21:39:29;51951.69;;;-144.43;100.00
37486;BME280;23341;50.296;18.960;2023-07-30T21:44:33;51961.69;;;-144.43;100.00
37486;BME280;23341;50.296;18.960;2023-07-30T21:49:37;51953.69;;;-144.43;100.00
37486;BME280;23341;50.296;18.960;2023-07-30T21:54:42;51977.69;;;-144.43;100.00
37486;BME280;23341;50.296;18.960;2023-07-30T21:59:46;51961.69;;;-144.43;100.00
37486;BME280;23341;50.296;18.960;2023-07-30T22:04:51;51937.69;;;-144.43;100.00
37486;BME280;23341;50.296;18.960;2023-07-30T22:09:57;51925.72;;;-144.43;100.00
37486;BME280;23341;50.296;18.960;2023-07-30T22:15:01;51927.72;;;-144.43;100.00
37486;BME280;23341;50.296;18.960;2023-07-30T22:20:06;51903.72;;;-144.43;100.00
37486;BME280;23341;50.296;18.960;2023-07-30T22:25:11;52003.69;;;-144.43;100.00
37486;BME280;23341;50.296;18.960;2023-07-30T22:30:16;52077.69;;;-144.43;100.00
37486;BME280;23341;50.296;18.960;2023-07-30T22:35:22;52029.69;;;-144.43;100.00
37486;BME280;23341;50.296;18.960;2023-07-30T22:40:28;52001.69;;;-144.43;100.00
37486;BME280;23341;50.296;18.960;2023-07-30T22:45:35;51981.69;;;-144.43;100.00
37486;BME280;23341;50.296;18.960;2023-07-30T22:50:39;52011.69;;;-144.43;100.00
37486;BME280;23341;50.296;18.960;2023-07-30T22:55:47;51985.69;;;-144.43;100.00
37486;BME280;23341;50.296;18.960;2023-07-30T23:00:51;51899.72;;;-144.43;100.00
37486;BME280;23341;50.296;18.960;2023-07-30T23:05:55;51857.72;;;-144.43;100.00
37486;BME280;23341;50.296;18.960;2023-07-30T23:11:01;51875.72;;;-144.43;100.00
37486;BME280;23341;50.296;18.960;2023-07-30T23:16:05;51923.72;;;-144.43;100.00
37486;BME280;23341;50.296;18.960;2023-07-30T23:21:08;51953.69;;;-144.43;100.00
37486;BME280;23341;50.296;18.960;2023-07-30T23:26:14;51969.69;;;-144.43;100.00
37486;BME280;23341;50.296;18.960;2023-07-30T23:31:17;51923.72;;;-144.43;100.00
37486;BME280;23341;50.296;18.960;2023-07-30T23:36:21;51937.69;;;-144.43;100.00
37486;BME280;23341;50.296;18.960;2023-07-30T23:41:26;51969.69;;;-144.43;100.00
37486;BME280;23341;50.296;18.960;2023-07-30T23:46:30;51935.69;;;-144.43;100.00
37486;BME280;23341;50.296;18.960;2023-07-30T23:51:34;52005.69;;;-144.43;100.00
37486;BME280;23341;50.296;18.960;2023-07-30T23:56:39;52041.69;;;-144.43;100.00
